Time;durP1;ratioP1;P1;durP2;ratioP2;P2;SDS_P1;SDS_P2;PMS_P1;PMS_P2;Temp;Humidity;BMP_temperature;BMP_pressure;BME280_temperature;BME280_humidity;BME280_pressure;Samples;Min_cycle;Max_cycle;Signal;HPM_P1;HPM_P2
2022/03/29 00:00:39;;;;;;;;;;;;;;;;;;;;;
2022/03/29 00:03:58;;;;;;;;;;;;;;;;;;;;;
2022/03/29 00:07:21;;;;;;;;;;;;;;;19.43;29.92;101007.48;102160;1335;61857;-84
2022/03/29 00:10:38;;;;;;;;;;;;;;;19.42;29.98;100998.22;102096;1338;72926;-81
2022/03/29 00:13:13;;;;;;;;;;;;;;;19.42;30.06;100995.55;101871;1339;75902;-86
2022/03/29 00:16:40;;;;;;;;;;;;;;;19.42;30.03;100988.77;101842;1340;62801;-87
2022/03/29 00:20:19;;;;;;;;;;;;;;;19.43;30.00;100991.61;101808;1340;61605;-82
2022/03/29 00:23:06;;;;;;;;;;;;;;;19.42;30.09;100981.80;101715;1344;74016;-86
2022/03/29 00:25:55;;;;;;;;;;;;;;;19.43;30.10;100970.52;101557;1348;73622;-83
2022/03/29 00:28:43;;;;;;;;;;;;;;;19.42;30.04;100962.35;101500;1350;60308;-82
2022/03/29 00:31:36;;;;;;;;;;;;;;;19.43;30.03;100959.83;101668;1344;61509;-83
2022/03/29 00:34:34;;;;;;;;;;;;;;;19.42;29.99;100957.91;101712;1345;73103;-83
2022/03/29 00:37:35;;;;;;;;;;;;;;;19.42;30.04;100953.98;101561;1350;76140;-83
2022/03/29 00:40:00;;;;;;;;;;;;;;;19.42;30.10;100951.30;101521;1348;61971;-83
2022/03/29 00:43:08;;;;;;;;;;;;;;;19.42;30.10;100946.51;101561;1346;62238;-85
2022/03/29 00:45:58;;;;;;;;;;;;;;;19.41;30.12;100947.45;101781;1343;72913;-83
2022/03/29 00:48:46;;;;;;;;;;;;;;;19.41;30.06;100946.75;101795;1343;74980;-87
2022/03/29 00:55:24;;;;;;;;;;;;;;;19.41;30.13;100939.98;101248;1352;62012;-88
2022/03/29 00:58:01;;;;;;;;;;;;;;;19.41;30.10;100936.57;101551;1348;74132;-82
2022/03/29 01:00:30;;;;;;;;;;;;;;;19.40;30.13;100940.17;101686;1345;74793;-84
2022/03/29 01:04:02;;;;;;;;;;;;;;;19.40;30.14;100936.98;101777;1340;62821;-83
2022/03/29 01:06:39;;;;;;;;;;;;;;;19.40;30.10;100932.71;101790;1341;61396;-82
2022/03/29 01:09:33;;;;;;;;;;;;;;;19.40;30.17;100927.73;101832;1340;72983;-81
2022/03/29 01:12:19;;;;;;;;;;;;;;;19.40;30.17;100920.58;101738;1343;74777;-85
2022/03/29 01:15:09;;;;;;;;;;;;;;;;;;;;;
2022/03/29 01:17:54;;;;;;;;;;;;;;;;;;;;;
2022/03/29 01:20:32;;;;;;;;;;;;;;;19.39;30.19;100915.09;101905;1337;72932;-84
2022/03/29 01:23:38;;;;;;;;;;;;;;;19.39;30.23;100910.27;101909;1337;74875;-87
2022/03/29 01:26:42;;;;;;;;;;;;;;;19.39;30.20;100906.38;101912;1340;61362;-89
2022/03/29 01:29:27;;;;;;;;;;;;;;;19.39;30.22;100898.84;102049;1334;61214;-81
2022/03/29 01:32:43;;;;;;;;;;;;;;;;;;;;;
2022/03/29 01:35:43;;;;;;;;;;;;;;;;;;;;;
2022/03/29 01:38:40;;;;;;;;;;;;;;;19.39;30.29;100882.64;102901;1325;61256;-84
2022/03/29 01:41:26;;;;;;;;;;;;;;;19.38;30.35;100874.08;102613;1329;61342;-83
2022/03/29 01:44:04;;;;;;;;;;;;;;;;;;;;;
2022/03/29 01:46:58;;;;;;;;;;;;;;;19.38;30.34;100865.55;102552;1329;75953;-82
2022/03/29 01:50:03;;;;;;;;;;;;;;;;;;;;;
2022/03/29 01:53:08;;;;;;;;;;;;;;;19.38;30.32;100855.38;102967;1326;61221;-82
2022/03/29 01:56:08;;;;;;;;;;;;;;;;;;;;;
2022/03/29 01:59:23;;;;;;;;;;;;;;;;;;;;;
2022/03/29 02:02:21;;;;;;;;;;;;;;;19.37;30.45;100850.59;102899;1325;61207;-82
2022/03/29 02:05:32;;;;;;;;;;;;;;;19.37;30.34;100848.46;103114;1323;61469;-83
2022/03/29 02:08:33;;;;;;;;;;;;;;;19.37;30.47;100847.03;103354;1320;72546;-83
2022/03/29 02:11:22;;;;;;;;;;;;;;;;;;;;;
2022/03/29 02:14:30;;;;;;;;;;;;;;;19.37;30.37;100835.79;102712;1326;61227;-84
2022/03/29 02:17:23;;;;;;;;;;;;;;;19.37;30.44;100833.83;102697;1326;61266;-84
2022/03/29 02:20:09;;;;;;;;;;;;;;;19.37;30.43;100830.43;102813;1323;73617;-84
2022/03/29 02:22:48;;;;;;;;;;;;;;;19.37;30.35;100831.88;103104;1323;74615;-84
2022/03/29 02:25:54;;;;;;;;;;;;;;;19.37;30.47;100831.88;103178;1323;61400;-83
2022/03/29 02:28:59;;;;;;;;;;;;;;;19.37;30.50;100831.00;103202;1323;61438;-81
2022/03/29 02:31:52;;;;;;;;;;;;;;;19.36;30.41;100825.86;103126;1322;71992;-87
2022/03/29 02:34:54;;;;;;;;;;;;;;;19.36;30.38;100828.17;103355;1320;76027;-81
2022/03/29 02:37:30;;;;;;;;;;;;;;;;;;;;;
2022/03/29 02:40:37;;;;;;;;;;;;;;;19.35;30.44;100826.45;102769;1325;61223;-83
2022/03/29 02:43:43;;;;;;;;;;;;;;;19.35;30.41;100823.75;102955;1326;71737;-85
2022/03/29 02:46:27;;;;;;;;;;;;;;;;;;;;;
2022/03/29 02:49:34;;;;;;;;;;;;;;;19.35;30.46;100816.49;103243;1320;61620;-88
2022/03/29 02:52:20;;;;;;;;;;;;;;;19.35;30.57;100814.52;103403;1319;61171;-85
2022/03/29 02:55:09;;;;;;;;;;;;;;;19.34;30.49;100811.16;103344;1320;72949;-84
2022/03/29 02:58:11;;;;;;;;;;;;;;;19.35;30.53;100809.37;102963;1325;74884;-83
2022/03/29 03:01:18;;;;;;;;;;;;;;;19.35;30.51;100809.20;102760;1326;61084;-82
2022/03/29 03:04:13;;;;;;;;;;;;;;;19.34;30.59;100809.21;102771;1326;61246;-85
2022/03/29 03:07:00;;;;;;;;;;;;;;;19.34;30.54;100809.40;102938;1325;72936;-83
2022/03/29 03:10:19;;;;;;;;;;;;;;;;;;;;;
2022/03/29 03:13:07;;;;;;;;;;;;;;;19.34;30.52;100804.41;102539;1331;61667;-86
2022/03/29 03:16:06;;;;;;;;;;;;;;;;;;;;;
2022/03/29 03:18:49;;;;;;;;;;;;;;;19.32;30.69;100793.63;102435;1332;73119;-85
2022/03/29 03:21:55;;;;;;;;;;;;;;;19.32;30.63;100793.50;102341;1332;74964;-82
2022/03/29 03:24:35;;;;;;;;;;;;;;;19.31;30.55;100790.13;102030;1337;61291;-84
2022/03/29 03:27:40;;;;;;;;;;;;;;;;;;;;;
2022/03/29 03:30:40;;;;;;;;;;;;;;;;;;;;;
2022/03/29 03:34:25;;;;;;;;;;;;;;;19.30;30.61;100785.36;101803;1341;76508;-84
2022/03/29 03:37:06;;;;;;;;;;;;;;;19.30;30.60;100778.64;102085;1338;61495;-82
2022/03/29 03:39:54;;;;;;;;;;;;;;;19.30;30.58;100780.95;102068;1336;61147;-83
2022/03/29 03:43:36;;;;;;;;;;;;;;;19.29;30.55;100781.67;101937;1335;73173;-86
2022/03/29 03:46:20;;;;;;;;;;;;;;;19.31;30.47;100779.47;102460;1331;73635;-83
2022/03/29 03:49:19;;;;;;;;;;;;;;;;;;;;;
2022/03/29 03:52:23;;;;;;;;;;;;;;;19.37;30.45;100775.33;102165;1335;61448;-87
2022/03/29 03:55:37;;;;;;;;;;;;;;;;;;;;;
2022/03/29 03:58:18;;;;;;;;;;;;;;;19.44;30.06;100766.11;101817;1341;76207;-79
2022/03/29 04:01:43;;;;;;;;;;;;;;;;;;;;;
2022/03/29 04:04:59;;;;;;;;;;;;;;;;;;;;;
2022/03/29 04:08:03;;;;;;;;;;;;;;;19.58;29.83;100760.16;101235;1349;73894;-82
2022/03/29 04:10:48;;;;;;;;;;;;;;;19.64;29.87;100756.08;101294;1351;75727;-83
2022/03/29 04:14:06;;;;;;;;;;;;;;;19.67;29.86;100758.75;101214;1348;61259;-84
2022/03/29 04:16:34;;;;;;;;;;;;;;;19.72;29.69;100757.89;101363;1348;61482;-81
2022/03/29 04:19:23;;;;;;;;;;;;;;;19.74;29.80;100755.73;101396;1348;72973;-84
2022/03/29 04:21:57;;;;;;;;;;;;;;;19.78;29.68;100753.02;101372;1346;75739;-85
2022/03/29 04:24:52;;;;;;;;;;;;;;;19.81;29.73;100753.03;101379;1346;61276;-82
2022/03/29 04:27:59;;;;;;;;;;;;;;;19.83;29.62;100755.00;101475;1343;61429;-82
2022/03/29 04:30:27;;;;;;;;;;;;;;;19.86;29.65;100759.09;101285;1346;73046;-82
2022/03/29 04:33:18;;;;;;;;;;;;;;;19.88;29.55;100762.55;101486;1338;76415;-82
2022/03/29 04:35:44;;;;;;;;;;;;;;;19.91;29.54;100764.52;101594;1338;61248;-80
2022/03/29 04:38:21;;;;;;;;;;;;;;;19.92;29.49;100762.98;101801;1334;61227;-82
2022/03/29 04:40:59;;;;;;;;;;;;;;;19.93;29.48;100763.61;101934;1329;73692;-81
2022/03/29 04:43:25;;;;;;;;;;;;;;;19.92;29.41;100767.65;102201;1327;75351;-81
2022/03/29 04:45:50;;;;;;;;;;;;;;;19.90;29.42;100770.26;102255;1328;61381;-81
2022/03/29 04:48:16;;;;;;;;;;;;;;;19.87;29.33;100767.47;101956;1328;60740;-81
2022/03/29 04:50:58;;;;;;;;;;;;;;;19.82;29.21;100766.34;102033;1328;74221;-81
2022/03/29 04:53:44;;;;;;;;;;;;;;;19.79;29.21;100772.59;102069;1328;61209;-81
2022/03/29 04:56:12;;;;;;;;;;;;;;;19.75;29.07;100774.46;101951;1326;61518;-82
2022/03/29 04:58:38;;;;;;;;;;;;;;;19.71;29.01;100775.03;101947;1326;61627;-81
2022/03/29 05:01:04;;;;;;;;;;;;;;;19.69;28.96;100776.08;101829;1326;61441;-83
2022/03/29 05:03:31;;;;;;;;;;;;;;;19.68;28.93;100774.05;101792;1323;62348;-82
2022/03/29 05:05:57;;;;;;;;;;;;;;;19.66;28.89;100774.47;102370;1320;61439;-79
2022/03/29 05:08:22;;;;;;;;;;;;;;;19.65;28.84;100775.84;102939;1314;59958;-81
2022/03/29 05:10:48;;;;;;;;;;;;;;;19.63;28.84;100772.55;103416;1313;61410;-83
2022/03/29 05:13:17;;;;;;;;;;;;;;;19.63;28.75;100771.99;103283;1313;61340;-81
2022/03/29 05:15:43;;;;;;;;;;;;;;;19.64;28.64;100768.38;103293;1313;61302;-81
2022/03/29 05:18:10;;;;;;;;;;;;;;;19.66;28.55;100766.15;103347;1314;61252;-81
2022/03/29 05:20:36;;;;;;;;;;;;;;;19.66;28.58;100763.41;103419;1313;61449;-81
2022/03/29 05:23:06;;;;;;;;;;;;;;;19.68;28.43;100763.66;103414;1313;61286;-80
2022/03/29 05:25:32;;;;;;;;;;;;;;;19.69;28.58;100763.94;103285;1314;61194;-80
2022/03/29 05:27:57;;;;;;;;;;;;;;;19.69;28.25;100761.23;103322;1314;61306;-80
2022/03/29 05:30:24;;;;;;;;;;;;;;;19.70;28.35;100760.15;103426;1314;61982;-81
2022/03/29 05:32:57;;;;;;;;;;;;;;;19.70;28.26;100760.28;103392;1314;74803;-81
2022/03/29 05:35:29;;;;;;;;;;;;;;;19.70;28.37;100761.71;103690;1314;61296;-80
2022/03/29 05:37:57;;;;;;;;;;;;;;;19.71;28.38;100759.69;103641;1313;61602;-80
2022/03/29 05:40:23;;;;;;;;;;;;;;;19.71;28.33;100750.73;103610;1314;72690;-81
2022/03/29 05:42:48;;;;;;;;;;;;;;;19.73;28.33;100749.90;103426;1313;61296;-80
2022/03/29 05:45:14;;;;;;;;;;;;;;;19.75;28.22;100743.39;103403;1314;61276;-81
2022/03/29 05:50:24;;;;;;;;;;;;;;;19.76;28.06;100741.48;103468;1313;72885;-81
2022/03/29 05:52:59;;;;;;;;;;;;;;;19.78;28.20;100741.95;103231;1314;61326;-80
2022/03/29 05:55:25;;;;;;;;;;;;;;;19.74;28.10;100737.16;103171;1313;62651;-81
2022/03/29 05:57:51;;;;;;;;;;;;;;;19.68;27.97;100735.05;103305;1313;61302;-81
2022/03/29 06:00:23;;;;;;;;;;;;;;;19.65;28.00;100732.45;103191;1313;61275;-80
2022/03/29 06:02:49;;;;;;;;;;;;;;;19.59;28.03;100735.45;103194;1313;75825;-81
2022/03/29 06:05:16;;;;;;;;;;;;;;;19.59;28.07;100731.38;103294;1313;61269;-81
2022/03/29 06:07:44;;;;;;;;;;;;;;;19.58;27.88;100738.04;103397;1314;61681;-81
2022/03/29 06:10:11;;;;;;;;;;;;;;;19.58;28.05;100734.48;103412;1313;73789;-81
2022/03/29 06:12:39;;;;;;;;;;;;;;;19.58;28.04;100730.01;103379;1314;75912;-81
2022/03/29 06:15:08;;;;;;;;;;;;;;;19.59;28.04;100727.23;103448;1313;61377;-80
2022/03/29 06:17:34;;;;;;;;;;;;;;;19.61;28.04;100728.92;103177;1313;62895;-80
2022/03/29 06:19:59;;;;;;;;;;;;;;;19.65;28.24;100727.08;103237;1315;61483;-80
2022/03/29 06:22:28;;;;;;;;;;;;;;;19.69;28.01;100729.88;103511;1313;74069;-80
2022/03/29 06:24:58;;;;;;;;;;;;;;;19.72;28.15;100731.77;103568;1313;61285;-80
2022/03/29 06:27:25;;;;;;;;;;;;;;;19.77;28.24;100728.10;103790;1313;61458;-81
2022/03/29 06:29:57;;;;;;;;;;;;;;;19.79;28.25;100727.38;103493;1313;73911;-80
2022/03/29 06:32:25;;;;;;;;;;;;;;;19.81;28.23;100723.70;103301;1314;74920;-80
2022/03/29 06:34:51;;;;;;;;;;;;;;;19.82;28.30;100724.52;103542;1313;61122;-79
2022/03/29 06:37:16;;;;;;;;;;;;;;;19.84;28.15;100721.73;103483;1314;62421;-80
2022/03/29 06:39:42;;;;;;;;;;;;;;;19.85;28.32;100721.34;103545;1313;62924;-83
2022/03/29 06:42:08;;;;;;;;;;;;;;;19.82;28.19;100720.80;103528;1313;61430;-81
2022/03/29 06:44:38;;;;;;;;;;;;;;;19.82;28.41;100717.58;103424;1313;61202;-80
2022/03/29 06:47:04;;;;;;;;;;;;;;;19.84;28.61;100714.06;102775;1314;888695;-80
2022/03/29 06:49:30;;;;;;;;;;;;;;;19.85;28.73;100712.36;103444;1313;61361;-81
2022/03/29 06:51:57;;;;;;;;;;;;;;;19.87;28.69;100709.06;103392;1313;74770;-81
2022/03/29 06:54:23;;;;;;;;;;;;;;;19.87;28.53;100704.73;103289;1313;61373;-82
2022/03/29 06:56:52;;;;;;;;;;;;;;;19.88;28.43;100700.56;103103;1314;61579;-80
2022/03/29 06:59:17;;;;;;;;;;;;;;;19.90;28.43;100701.64;103355;1306;72908;-81
2022/03/29 07:02:11;;;;;;;;;;;;;;;19.92;28.61;100698.67;103856;1305;61263;-81
2022/03/29 07:04:37;;;;;;;;;;;;;;;19.93;28.75;100696.98;103454;1312;61555;-81
2022/03/29 07:07:05;;;;;;;;;;;;;;;19.93;28.61;100697.57;104827;1311;59519;-81
2022/03/29 07:12:16;;;;;;;;;;;;;;;19.98;28.76;100693.29;104261;1310;73728;-81
2022/03/29 07:14:41;;;;;;;;;;;;;;;20.00;28.89;100691.57;103661;1312;61364;-81
2022/03/29 07:17:13;;;;;;;;;;;;;;;20.01;28.74;100688.28;103592;1311;61320;-80
2022/03/29 07:19:40;;;;;;;;;;;;;;;20.02;28.63;100686.61;103517;1311;72689;-80
2022/03/29 07:22:06;;;;;;;;;;;;;;;20.04;28.67;100679.51;103449;1311;72813;-79
2022/03/29 07:24:32;;;;;;;;;;;;;;;20.06;28.53;100677.95;103785;1310;61563;-81
2022/03/29 07:26:59;;;;;;;;;;;;;;;20.07;28.74;100673.70;103768;1310;61617;-80
2022/03/29 07:29:25;;;;;;;;;;;;;;;20.11;28.65;100670.23;103833;1310;61441;-84
2022/03/29 07:31:56;;;;;;;;;;;;;;;20.15;28.87;100668.16;103901;1310;75865;-84
2022/03/29 07:34:26;;;;;;;;;;;;;;;20.20;29.56;100666.94;103747;1312;61317;-80
2022/03/29 07:36:52;;;;;;;;;;;;;;;20.24;29.63;100666.63;103760;1312;61507;-80
2022/03/29 07:39:18;;;;;;;;;;;;;;;20.28;29.80;100663.73;103806;1309;61182;-82
2022/03/29 07:41:43;;;;;;;;;;;;;;;20.29;29.67;100664.35;103898;1306;59357;-81
2022/03/29 07:44:18;;;;;;;;;;;;;;;20.29;29.57;100663.46;104249;1305;61806;-84
2022/03/29 07:46:44;;;;;;;;;;;;;;;20.30;29.16;100662.71;104030;1306;61390;-81
2022/03/29 07:49:09;;;;;;;;;;;;;;;20.29;29.01;100661.48;104088;1305;61412;-80
2022/03/29 07:51:36;;;;;;;;;;;;;;;20.27;28.89;100657.89;103681;1306;61457;-86
2022/03/29 07:54:03;;;;;;;;;;;;;;;20.24;28.85;100650.72;103928;1308;61174;-82
2022/03/29 07:56:29;;;;;;;;;;;;;;;20.22;28.63;100649.86;104213;1306;61214;-81
2022/03/29 07:58:56;;;;;;;;;;;;;;;20.20;28.62;100652.49;104102;1306;61318;-81
2022/03/29 08:01:23;;;;;;;;;;;;;;;20.19;28.62;100650.38;103830;1306;61364;-81
2022/03/29 08:03:48;;;;;;;;;;;;;;;20.19;28.70;100651.80;103948;1305;61284;-81
2022/03/29 08:06:14;;;;;;;;;;;;;;;20.22;28.69;100647.83;104004;1305;61374;-80
2022/03/29 08:08:41;;;;;;;;;;;;;;;20.24;28.84;100648.95;103912;1305;61308;-81
2022/03/29 08:11:08;;;;;;;;;;;;;;;20.26;28.87;100648.84;103936;1305;61611;-82
2022/03/29 08:13:34;;;;;;;;;;;;;;;20.28;28.84;100648.35;104401;1305;60278;-81
2022/03/29 08:16:02;;;;;;;;;;;;;;;20.28;28.80;100647.64;104138;1304;61177;-81
2022/03/29 08:18:35;;;;;;;;;;;;;;;20.29;28.71;100645.59;104081;1306;72840;-81
2022/03/29 08:21:01;;;;;;;;;;;;;;;20.30;28.68;100641.06;104265;1305;76059;-81
2022/03/29 08:23:27;;;;;;;;;;;;;;;20.30;28.59;100646.09;104105;1306;61106;-81
2022/03/29 08:25:56;;;;;;;;;;;;;;;20.29;28.48;100642.21;104353;1305;61329;-82
2022/03/29 08:28:23;;;;;;;;;;;;;;;20.29;28.49;100638.80;104117;1305;72925;-80
2022/03/29 08:30:49;;;;;;;;;;;;;;;20.30;28.49;100636.27;104128;1306;75331;-81
2022/03/29 08:33:15;;;;;;;;;;;;;;;20.29;28.61;100634.35;104105;1305;61388;-82
2022/03/29 08:35:44;;;;;;;;;;;;;;;20.29;28.58;100635.41;103947;1305;61234;-81
2022/03/29 08:38:10;;;;;;;;;;;;;;;20.29;28.55;100631.83;103952;1306;74421;-81
2022/03/29 08:40:37;;;;;;;;;;;;;;;20.29;28.64;100629.31;103963;1303;62039;-81
2022/03/29 08:43:08;;;;;;;;;;;;;;;20.28;28.79;100624.02;104170;1305;61374;-81
2022/03/29 08:45:34;;;;;;;;;;;;;;;20.28;28.74;100621.00;104239;1305;61314;-81
2022/03/29 08:48:00;;;;;;;;;;;;;;;20.28;28.79;100615.48;103894;1305;61299;-81
2022/03/29 08:50:28;;;;;;;;;;;;;;;20.28;28.94;100619.08;103815;1308;61340;-83
2022/03/29 08:52:58;;;;;;;;;;;;;;;20.25;28.83;100613.69;103542;1308;61149;-81
2022/03/29 08:55:24;;;;;;;;;;;;;;;20.23;29.11;100610.08;103790;1305;61306;-81
2022/03/29 08:58:18;;;;;;;;;;;;;;;20.21;29.01;100607.94;103756;1305;63312;-81
2022/03/29 09:00:48;;;;;;;;;;;;;;;20.19;29.44;100610.96;103200;1313;75754;-82
2022/03/29 09:03:15;;;;;;;;;;;;;;;20.20;29.60;100611.56;103197;1312;61448;-79
2022/03/29 09:05:49;;;;;;;;;;;;;;;20.22;29.93;100608.92;103394;1312;61334;-82
2022/03/29 09:08:15;;;;;;;;;;;;;;;20.22;29.84;100598.52;103274;1311;72870;-80
2022/03/29 09:11:08;;;;;;;;;;;;;;;20.21;30.05;100596.80;104542;1313;61392;-80
2022/03/29 09:13:33;;;;;;;;;;;;;;;20.19;30.07;100590.71;102626;1319;61367;-81
2022/03/29 09:16:00;;;;;;;;;;;;;;;20.17;30.04;100581.74;102519;1320;61475;-81
2022/03/29 09:18:26;;;;;;;;;;;;;;;20.17;30.17;100577.09;102545;1320;61496;-80
2022/03/29 09:21:13;;;;;;;;;;;;;;;20.18;30.29;100578.31;102471;1320;61338;-81
2022/03/29 09:23:38;;;;;;;;;;;;;;;20.19;30.35;100578.23;102074;1325;61161;-82
2022/03/29 09:26:04;;;;;;;;;;;;;;;20.20;30.46;100573.84;101999;1326;61368;-81
2022/03/29 09:28:38;;;;;;;;;;;;;;;20.19;30.47;100569.61;101990;1328;61418;-81
2022/03/29 09:31:19;;;;;;;;;;;;;;;20.19;30.47;100564.09;102086;1325;74567;-80
2022/03/29 09:33:45;;;;;;;;;;;;;;;20.18;30.52;100560.96;102018;1326;61528;-81
2022/03/29 09:36:14;;;;;;;;;;;;;;;20.15;30.47;100561.68;102032;1328;61343;-82
2022/03/29 09:38:44;;;;;;;;;;;;;;;20.15;30.47;100558.30;102402;1320;72961;-81
2022/03/29 09:41:28;;;;;;;;;;;;;;;20.15;30.51;100551.52;102745;1320;75968;-81
2022/03/29 09:44:06;;;;;;;;;;;;;;;20.14;30.54;100546.61;102801;1320;61469;-80
2022/03/29 09:46:53;;;;;;;;;;;;;;;20.14;30.59;100540.71;102632;1320;61457;-82
2022/03/29 09:49:20;;;;;;;;;;;;;;;20.14;30.60;100536.77;102735;1319;72836;-81
2022/03/29 09:51:46;;;;;;;;;;;;;;;20.13;30.61;100536.63;104365;1313;75846;-84
2022/03/29 09:54:16;;;;;;;;;;;;;;;20.10;30.60;100527.70;104676;1311;60839;-82
2022/03/29 09:56:41;;;;;;;;;;;;;;;20.10;30.75;100524.65;103060;1314;61342;-82
2022/03/29 09:59:08;;;;;;;;;;;;;;;20.12;30.78;100519.80;103190;1311;60658;-82
2022/03/29 10:01:57;;;;;;;;;;;;;;;20.13;30.99;100515.62;103410;1305;61261;-82
2022/03/29 10:04:29;;;;;;;;;;;;;;;20.13;31.05;100513.05;103599;1305;62874;-81
2022/03/29 10:06:55;;;;;;;;;;;;;;;20.13;30.88;100506.63;105422;1305;60398;-82
2022/03/29 10:09:35;;;;;;;;;;;;;;;20.12;31.02;100498.31;105260;1305;59494;-81
2022/03/29 10:12:07;;;;;;;;;;;;;;;20.13;31.10;100496.61;105434;1305;74675;-81
2022/03/29 10:14:34;;;;;;;;;;;;;;;20.15;31.04;100487.02;105278;1305;59647;-82
2022/03/29 10:17:00;;;;;;;;;;;;;;;20.16;31.11;100483.56;104050;1305;62356;-81
2022/03/29 10:19:26;;;;;;;;;;;;;;;20.16;31.02;100475.66;103902;1305;72864;-81
2022/03/29 10:21:58;;;;;;;;;;;;;;;20.16;30.90;100473.05;103882;1306;59968;-81
2022/03/29 10:24:40;;;;;;;;;;;;;;;20.14;30.90;100469.02;103916;1305;65311;-81
2022/03/29 10:27:06;;;;;;;;;;;;;;;20.14;30.70;100468.70;104045;1305;61887;-82
2022/03/29 10:29:32;;;;;;;;;;;;;;;20.13;30.78;100471.98;103988;1305;59924;-81
2022/03/29 10:31:59;;;;;;;;;;;;;;;20.13;30.83;100465.93;104037;1305;61430;-82
2022/03/29 10:34:26;;;;;;;;;;;;;;;20.13;30.91;100460.73;104347;1305;61333;-82
2022/03/29 10:37:06;;;;;;;;;;;;;;;20.13;31.03;100456.80;104058;1305;61242;-82
2022/03/29 10:39:53;;;;;;;;;;;;;;;20.11;30.92;100454.81;104104;1305;72113;-82
2022/03/29 10:42:36;;;;;;;;;;;;;;;20.10;30.90;100451.46;104267;1308;74678;-82
2022/03/29 10:45:05;;;;;;;;;;;;;;;20.10;30.88;100449.70;103918;1308;63828;-81
2022/03/29 10:47:31;;;;;;;;;;;;;;;20.07;30.84;100442.55;103776;1308;61321;-82
2022/03/29 10:49:58;;;;;;;;;;;;;;;20.07;30.75;100437.23;103685;1305;61273;-81
2022/03/29 10:52:23;;;;;;;;;;;;;;;20.06;30.84;100436.53;103638;1305;61583;-81
2022/03/29 10:54:53;;;;;;;;;;;;;;;20.07;31.05;100428.80;103826;1305;62380;-81
2022/03/29 10:57:24;;;;;;;;;;;;;;;20.09;30.93;100421.89;103771;1304;61212;-81
2022/03/29 10:59:51;;;;;;;;;;;;;;;20.08;30.92;100417.46;103762;1305;72869;-82
2022/03/29 11:02:21;;;;;;;;;;;;;;;20.07;30.88;100412.17;105342;1305;74692;-81
2022/03/29 11:05:09;;;;;;;;;;;;;;;20.05;30.82;100410.89;104416;1305;61399;-81
2022/03/29 11:07:35;;;;;;;;;;;;;;;20.03;30.86;100399.79;105432;1305;60330;-81
2022/03/29 11:10:18;;;;;;;;;;;;;;;20.03;30.71;100398.71;105493;1305;58966;-80
2022/03/29 11:12:51;;;;;;;;;;;;;;;20.03;30.60;100393.33;104209;1305;74937;-80
2022/03/29 11:15:35;;;;;;;;;;;;;;;20.04;30.68;100395.42;103755;1307;61396;-80
2022/03/29 11:18:02;;;;;;;;;;;;;;;20.04;30.66;100389.70;104061;1305;61217;-80
2022/03/29 11:20:30;;;;;;;;;;;;;;;20.05;30.73;100385.38;103957;1305;61294;-81
2022/03/29 11:23:06;;;;;;;;;;;;;;;20.05;30.56;100385.38;104253;1305;74980;-81
2022/03/29 11:25:38;;;;;;;;;;;;;;;20.05;30.73;100379.85;104066;1308;62234;-81
2022/03/29 11:28:06;;;;;;;;;;;;;;;20.07;30.76;100376.65;104719;1308;61108;-83
2022/03/29 11:30:34;;;;;;;;;;;;;;;20.10;30.89;100369.42;104606;1305;73038;-80
2022/03/29 11:33:08;;;;;;;;;;;;;;;20.14;31.06;100363.63;104103;1305;76199;-82
2022/03/29 11:35:34;;;;;;;;;;;;;;;20.16;30.95;100359.39;104128;1308;61321;-81
2022/03/29 11:38:29;;;;;;;;;;;;;;;20.18;30.85;100354.05;104099;1306;61202;-81
2022/03/29 11:40:55;;;;;;;;;;;;;;;20.19;31.04;100347.16;103591;1311;71611;-81
2022/03/29 11:43:24;;;;;;;;;;;;;;;20.20;30.67;100339.22;103518;1314;61305;-83
2022/03/29 11:45:51;;;;;;;;;;;;;;;20.19;30.70;100337.50;103499;1314;61337;-84
2022/03/29 11:48:22;;;;;;;;;;;;;;;20.20;30.84;100333.88;103390;1312;63323;-84
2022/03/29 11:50:49;;;;;;;;;;;;;;;20.22;30.85;100328.90;103315;1314;72961;-83
2022/03/29 11:53:21;;;;;;;;;;;;;;;20.24;30.95;100325.39;103297;1314;75090;-82
2022/03/29 11:55:52;;;;;;;;;;;;;;;20.24;31.01;100325.20;103441;1313;61515;-81
2022/03/29 11:58:29;;;;;;;;;;;;;;;20.23;31.04;100318.86;103353;1314;61306;-82
2022/03/29 12:01:04;;;;;;;;;;;;;;;20.22;30.91;100319.63;103538;1314;73113;-82
2022/03/29 12:03:33;;;;;;;;;;;;;;;20.21;30.75;100315.73;103455;1314;75025;-82
2022/03/29 12:06:22;;;;;;;;;;;;;;;20.21;30.81;100311.13;103526;1314;61244;-80
2022/03/29 12:08:49;;;;;;;;;;;;;;;20.21;30.58;100305.55;103564;1314;61180;-84
2022/03/29 12:11:15;;;;;;;;;;;;;;;20.20;30.65;100304.05;103576;1314;72895;-80
2022/03/29 12:13:46;;;;;;;;;;;;;;;20.19;30.25;100297.89;103615;1314;74956;-82
2022/03/29 12:16:22;;;;;;;;;;;;;;;20.18;30.34;100301.89;103695;1313;61280;-82
2022/03/29 12:18:57;;;;;;;;;;;;;;;20.18;30.34;100295.44;103942;1308;61145;-82
2022/03/29 12:21:24;;;;;;;;;;;;;;;20.17;30.25;100294.97;104117;1308;73873;-81
2022/03/29 12:24:10;;;;;;;;;;;;;;;20.16;30.40;100286.82;104121;1305;76306;-82
2022/03/29 12:27:12;;;;;;;;;;;;;;;20.16;30.13;100290.79;104319;1305;61250;-81
2022/03/29 12:29:42;;;;;;;;;;;;;;;20.15;30.09;100283.70;103796;1311;61221;-81
2022/03/29 12:32:13;;;;;;;;;;;;;;;20.15;30.12;100283.70;103925;1311;72812;-81
2022/03/29 12:34:38;;;;;;;;;;;;;;;20.15;30.16;100280.65;103930;1311;74696;-81
2022/03/29 12:37:27;;;;;;;;;;;;;;;;;;;;;
2022/03/29 12:40:10;;;;;;;;;;;;;;;20.15;29.99;100275.71;103703;1314;61219;-81
2022/03/29 12:42:39;;;;;;;;;;;;;;;20.15;30.08;100271.20;103753;1311;73813;-82
2022/03/29 12:45:32;;;;;;;;;;;;;;;20.15;30.01;100263.86;103887;1311;74909;-82
2022/03/29 12:48:01;;;;;;;;;;;;;;;20.15;29.98;100260.48;103708;1311;61313;-81
2022/03/29 12:50:41;;;;;;;;;;;;;;;20.14;29.96;100257.13;103636;1314;61506;-82
2022/03/29 12:53:17;;;;;;;;;;;;;;;20.14;29.84;100250.02;103988;1311;74012;-83
2022/03/29 12:56:14;;;;;;;;;;;;;;;20.14;29.86;100245.20;103696;1311;74940;-81
2022/03/29 12:58:42;;;;;;;;;;;;;;;20.13;29.75;100244.17;103493;1313;61186;-82
2022/03/29 13:01:23;;;;;;;;;;;;;;;20.12;29.78;100232.11;103664;1311;61331;-80
2022/03/29 13:04:11;;;;;;;;;;;;;;;20.12;29.83;100241.44;103696;1314;72913;-82
2022/03/29 13:07:00;;;;;;;;;;;;;;;20.12;29.64;100234.27;103936;1305;75836;-81
2022/03/29 13:09:33;;;;;;;;;;;;;;;20.13;29.63;100230.82;104107;1307;61380;-81
2022/03/29 13:12:15;;;;;;;;;;;;;;;20.13;29.57;100225.98;103958;1307;61299;-81
2022/03/29 13:14:43;;;;;;;;;;;;;;;20.13;29.43;100217.71;104354;1305;72878;-82
2022/03/29 13:17:14;;;;;;;;;;;;;;;20.13;29.35;100217.38;104442;1305;75562;-82
2022/03/29 13:19:58;;;;;;;;;;;;;;;20.13;29.11;100215.11;104106;1307;61359;-84
2022/03/29 13:22:32;;;;;;;;;;;;;;;20.13;29.23;100209.58;104446;1305;61309;-82
2022/03/29 13:25:06;;;;;;;;;;;;;;;20.13;29.03;100209.05;104588;1305;74367;-82
2022/03/29 13:27:32;;;;;;;;;;;;;;;20.13;29.14;100206.51;104564;1305;74407;-85
2022/03/29 13:30:08;;;;;;;;;;;;;;;20.12;28.78;100198.71;104350;1308;61286;-82
2022/03/29 13:32:41;;;;;;;;;;;;;;;20.11;28.84;100197.16;104394;1305;61273;-84
2022/03/29 13:35:20;;;;;;;;;;;;;;;;;;;;;
2022/03/29 13:38:24;;;;;;;;;;;;;;;20.11;28.86;100192.15;104593;1305;74919;-85
2022/03/29 13:41:12;;;;;;;;;;;;;;;20.12;29.04;100187.84;104727;1305;61148;-86
2022/03/29 13:44:00;;;;;;;;;;;;;;;20.12;28.97;100183.16;104766;1305;61759;-85
2022/03/29 13:46:53;;;;;;;;;;;;;;;;;;;;;
2022/03/29 13:50:20;;;;;;;;;;;;;;;20.14;29.14;100176.98;104910;1305;75974;-86
2022/03/29 13:52:45;;;;;;;;;;;;;;;20.15;29.24;100177.78;104517;1305;61326;-85
2022/03/29 13:55:15;;;;;;;;;;;;;;;20.17;29.54;100175.98;104644;1305;61334;-86
2022/03/29 13:57:53;;;;;;;;;;;;;;;;;;;;;
2022/03/29 14:00:54;;;;;;;;;;;;;;;;;;;;;
2022/03/29 14:03:45;;;;;;;;;;;;;;;20.19;29.65;100167.98;104579;1306;61249;-83
2022/03/29 14:06:31;;;;;;;;;;;;;;;20.19;29.68;100166.52;104922;1306;61190;-84
2022/03/29 14:09:07;;;;;;;;;;;;;;;20.19;29.84;100160.63;104854;1305;72716;-82